Terminal Aerodrome Forecast
Issued by NWS Sterling, VA

Current Version | Previous Version | Text Only | Print | Product List | Glossary Off
Versions: 1 2 3 4 5 6 7 8 9 10 11 12 13 14 15 16 17 18 19 20 21 22 23 24

000
FTUS41 KLWX 010800 AAA
TAFDCA
TAF AMD
KDCA 010834Z 0109/0206 18003KT P6SM VCSH OVC080
     FM011200 22005KT P6SM BKN060
     FM011800 21006KT P6SM VCTS BKN045CB
     FM020000 VRB03KT P6SM SCT050=

USA.gov is the U.S. government's official web portal to all federal, state and local government web resources and services.